Current Weather

Nioro Du Sahel

Nioro Du Sahel, Mali (GANR)

Report from: Monday, February 6, 2023 6:00 AM GMT
Current time: Monday, February 6, 2023 6:16 AM GMT

Nearby weather
Weather history
Weather forecast

Temperature17.0°C (62.6°F)
Dew point4.0°C (39.2°F)
Winds 2 kts (1 m/s, 2.3 mph) North (360°)
Clouds Sky clear
Altimeter29.94 in.Hg (1014 mB)
Relative humidity42 %
Density altitude332 ft. (101 m)
Remarks Ceiling and visibility OK
Flight conditions Visual Meteorological Conditions
Raw dataGANR 060600Z 36002KT CAVOK 17/04 Q1014
An error has occurred. This application may no longer respond until reloaded. Reload 🗙